Aviation Digital Data Service (ADDS)

Output produced by METARs form (1108 UTC 26 November 2014)
found at http://aviationweather.gov/adds/metars/
 
KRME 260533Z 2606/2706 30005KT P6SM BKN050 BKN250 
     FM261400 35009KT P6SM OVC050 
     TEMPO 2614/2616 2SM -SN OVC015 
     FM261600 01008KT 1SM -SN OVC012 
     FM270300 31009KT 2SM -SN OVC018